createdAt,value
2022-10-09T00:01:16.529Z,3.65
2022-10-09T00:03:45.611Z,3.50
2022-10-09T00:06:15.840Z,3.22
2022-10-09T00:08:44.104Z,3.33
2022-10-09T00:11:16.761Z,3.78
2022-10-09T00:13:44.179Z,3.05
2022-10-09T00:16:12.886Z,3.33
2022-10-09T00:18:40.452Z,3.75
2022-10-09T00:21:25.742Z,3.17
2022-10-09T00:23:54.858Z,3.35
2022-10-09T00:26:22.306Z,2.78
2022-10-09T00:28:49.804Z,3.10
2022-10-09T00:31:17.026Z,3.10
2022-10-09T00:33:43.992Z,3.17
2022-10-09T00:36:15.033Z,3.28
2022-10-09T00:38:42.331Z,3.28
2022-10-09T00:41:12.620Z,3.17
2022-10-09T00:43:50.373Z,3.53
2022-10-09T00:46:35.146Z,3.45
2022-10-09T00:49:11.116Z,2.83
2022-10-09T00:51:38.514Z,3.25
2022-10-09T00:54:08.799Z,3.42
2022-10-09T00:56:35.833Z,3.95
2022-10-09T00:59:03.419Z,3.35
2022-10-09T01:01:30.277Z,3.25
2022-10-09T01:03:57.034Z,3.47
2022-10-09T01:06:26.485Z,3.47
2022-10-09T01:09:07.502Z,4.13
2022-10-09T01:11:42.891Z,3.70
2022-10-09T01:14:27.957Z,3.58
2022-10-09T01:17:17.671Z,3.30
2022-10-09T01:20:14.464Z,3.42
2022-10-09T01:22:47.376Z,3.10
2022-10-09T01:25:32.385Z,2.97
2022-10-09T01:28:01.178Z,2.75
2022-10-09T01:30:28.304Z,3.30
2022-10-09T01:32:56.042Z,2.85
2022-10-09T01:35:23.828Z,3.58
2022-10-09T01:37:53.313Z,3.55
2022-10-09T01:40:21.516Z,3.00
2022-10-09T01:42:48.437Z,3.30
2022-10-09T01:45:16.112Z,3.22
2022-10-09T01:47:43.308Z,3.10
2022-10-09T01:50:34.846Z,3.45
2022-10-09T01:53:09.568Z,3.00
2022-10-09T01:55:39.091Z,3.40
2022-10-09T01:58:08.844Z,3.27
2022-10-09T02:00:53.959Z,3.38
2022-10-09T02:03:21.635Z,2.95
2022-10-09T02:05:51.861Z,2.90
2022-10-09T02:08:19.944Z,3.00
2022-10-09T02:10:50.391Z,3.00
2022-10-09T02:15:49.813Z,3.30
2022-10-09T02:18:24.279Z,3.45
2022-10-09T02:20:55.575Z,3.33
2022-10-09T02:23:24.364Z,3.30
2022-10-09T02:25:52.442Z,3.00
2022-10-09T02:28:19.447Z,3.35
2022-10-09T02:31:15.182Z,3.33
2022-10-09T02:33:41.919Z,3.33
2022-10-09T02:36:09.042Z,3.17
2022-10-09T02:38:35.718Z,3.65
2022-10-09T02:41:02.722Z,3.25
2022-10-09T02:43:29.497Z,3.28
2022-10-09T02:45:56.271Z,2.83
2022-10-09T02:48:23.195Z,2.95
2022-10-09T02:50:49.879Z,3.40
2022-10-09T02:53:16.597Z,3.25
2022-10-09T02:55:43.399Z,3.53
2022-10-09T02:58:10.147Z,3.25
2022-10-09T03:00:38.554Z,3.20
2022-10-09T03:03:05.486Z,3.22
2022-10-09T03:05:32.209Z,3.25
2022-10-09T03:07:58.984Z,2.97
2022-10-09T03:10:25.786Z,3.17
2022-10-09T03:12:52.504Z,2.92
2022-10-09T03:15:19.241Z,3.40
2022-10-09T03:17:45.925Z,3.10
2022-10-09T03:20:12.666Z,3.20
2022-10-09T03:22:39.485Z,3.30
2022-10-09T03:25:06.791Z,3.10
2022-10-09T03:27:33.887Z,3.33
2022-10-09T03:30:00.606Z,3.15
2022-10-09T03:32:27.348Z,3.40
2022-10-09T03:34:54.205Z,3.13
2022-10-09T03:37:20.913Z,3.83
2022-10-09T03:39:47.713Z,3.25
2022-10-09T03:42:14.589Z,3.60
2022-10-09T03:44:41.462Z,3.78
2022-10-09T03:47:08.222Z,4.25
2022-10-09T03:49:37.076Z,3.85
2022-10-09T03:52:03.924Z,3.20
2022-10-09T03:54:30.603Z,3.10
2022-10-09T03:56:57.401Z,3.40
2022-10-09T03:59:24.180Z,3.78
2022-10-09T04:01:51.030Z,3.40
2022-10-09T04:04:17.872Z,3.03
2022-10-09T04:06:44.707Z,3.47
2022-10-09T04:09:11.507Z,3.13
2022-10-09T04:11:38.183Z,3.80
2022-10-09T04:14:05.979Z,3.38
2022-10-09T04:16:32.726Z,3.20
2022-10-09T04:18:59.599Z,3.20
2022-10-09T04:21:26.338Z,3.42
2022-10-09T04:23:53.184Z,3.50
2022-10-09T04:26:19.973Z,3.70
2022-10-09T04:28:46.784Z,3.80
2022-10-09T04:31:13.627Z,3.50
2022-10-09T04:33:40.449Z,3.70
2022-10-09T04:36:07.499Z,3.63
2022-10-09T04:38:34.330Z,3.55
2022-10-09T04:41:06.375Z,3.50
2022-10-09T04:43:34.994Z,3.58
2022-10-09T04:46:06.845Z,3.53
2022-10-09T04:48:41.157Z,3.42
2022-10-09T04:51:08.666Z,3.53
2022-10-09T04:53:36.475Z,3.92
2022-10-09T04:56:05.499Z,3.47
2022-10-09T04:58:36.408Z,3.53
2022-10-09T05:01:34.201Z,3.75
2022-10-09T05:04:03.973Z,3.83
2022-10-09T05:06:30.680Z,3.80
2022-10-09T05:08:57.522Z,4.07
2022-10-09T05:11:25.785Z,3.95
2022-10-09T05:13:55.611Z,3.63
2022-10-09T05:16:28.460Z,4.68
2022-10-09T05:18:57.771Z,4.80
2022-10-09T05:21:26.016Z,5.97
2022-10-09T05:23:54.638Z,5.32
2022-10-09T05:26:23.389Z,5.30
2022-10-09T05:28:50.326Z,5.40
2022-10-09T05:31:24.956Z,5.18
2022-10-09T05:33:52.268Z,5.20
2022-10-09T05:36:19.609Z,5.40
2022-10-09T05:38:46.611Z,4.70
2022-10-09T05:41:16.048Z,5.38
2022-10-09T05:43:44.877Z,5.35
2022-10-09T05:46:24.962Z,5.40
2022-10-09T05:49:07.913Z,5.80
2022-10-09T05:51:37.853Z,5.60
2022-10-09T05:54:14.980Z,5.35
2022-10-09T05:56:44.884Z,6.43
2022-10-09T05:59:19.488Z,5.75
2022-10-09T06:01:50.232Z,5.80
2022-10-09T06:04:24.814Z,5.55
2022-10-09T06:06:58.738Z,6.00
2022-10-09T06:09:26.691Z,5.55
2022-10-09T06:11:54.675Z,5.93
2022-10-09T06:14:22.409Z,6.18
2022-10-09T06:17:28.956Z,5.85
2022-10-09T06:19:56.711Z,5.88
2022-10-09T06:22:25.524Z,5.45
2022-10-09T06:24:52.221Z,5.53
2022-10-09T06:27:18.977Z,5.25
2022-10-09T06:29:47.834Z,6.72
2022-10-09T06:32:14.504Z,7.32
2022-10-09T06:34:44.428Z,7.93
2022-10-09T06:37:17.920Z,7.60
2022-10-09T06:40:04.271Z,7.75
2022-10-09T06:42:32.034Z,7.60
2022-10-09T06:45:02.461Z,7.55
2022-10-09T06:47:29.145Z,7.43
2022-10-09T06:49:55.856Z,9.00
2022-10-09T06:52:22.523Z,8.98
2022-10-09T06:54:49.300Z,9.75
2022-10-09T06:57:15.979Z,8.88
2022-10-09T06:59:42.766Z,9.35
2022-10-09T07:02:09.578Z,9.27
2022-10-09T07:04:36.403Z,10.00
2022-10-09T07:07:03.252Z,9.13
2022-10-09T07:09:30.033Z,10.02
2022-10-09T07:11:56.800Z,9.15
2022-10-09T07:14:23.515Z,9.15
2022-10-09T07:16:52.272Z,7.43
2022-10-09T07:19:19.726Z,7.60
2022-10-09T07:21:48.570Z,5.93
2022-10-09T07:24:16.321Z,4.80
2022-10-09T07:26:45.416Z,6.07
2022-10-09T07:29:13.886Z,6.15
2022-10-09T07:31:40.673Z,6.68
2022-10-09T07:34:07.875Z,5.32
2022-10-09T07:36:34.990Z,5.85
2022-10-09T07:39:02.359Z,5.20
2022-10-09T07:41:30.043Z,4.60
2022-10-09T07:43:57.701Z,5.50
2022-10-09T07:46:29.560Z,4.82
2022-10-09T07:48:57.656Z,3.85
2022-10-09T07:51:26.797Z,4.80
2022-10-09T07:53:53.742Z,3.75
2022-10-09T07:56:23.576Z,5.82
2022-10-09T07:58:52.425Z,3.95
2022-10-09T08:01:20.788Z,4.22
2022-10-09T08:03:48.458Z,4.05
2022-10-09T08:06:16.188Z,4.68
2022-10-09T08:08:42.966Z,4.20
2022-10-09T08:11:15.045Z,4.40
2022-10-09T08:13:42.930Z,4.07
2022-10-09T08:16:09.771Z,4.50
2022-10-09T08:18:36.961Z,4.05
2022-10-09T08:21:09.098Z,4.82
2022-10-09T08:23:36.138Z,6.55
2022-10-09T08:26:04.137Z,4.65
2022-10-09T08:28:31.077Z,5.55
2022-10-09T08:30:57.928Z,4.22
2022-10-09T08:33:26.021Z,4.47
2022-10-09T08:35:53.506Z,4.53
2022-10-09T08:38:45.436Z,4.45
2022-10-09T08:41:10.182Z,4.15
2022-10-09T08:43:41.454Z,5.40
2022-10-09T08:46:21.073Z,8.48
2022-10-09T08:48:50.853Z,3.85
2022-10-09T08:51:25.766Z,5.93
2022-10-09T08:53:55.028Z,4.82
2022-10-09T08:56:25.134Z,5.40
2022-10-09T08:58:52.076Z,4.15
2022-10-09T09:02:03.801Z,4.28
2022-10-09T09:04:36.162Z,3.40
2022-10-09T09:07:17.471Z,3.67
2022-10-09T09:10:14.971Z,3.08
2022-10-09T09:12:54.471Z,3.00
2022-10-09T09:15:30.165Z,4.00
2022-10-09T09:18:22.179Z,3.53
2022-10-09T09:20:54.696Z,3.30
2022-10-09T09:23:31.232Z,2.85
2022-10-09T09:25:59.614Z,2.70
2022-10-09T09:28:33.856Z,2.58
2022-10-09T09:31:14.735Z,2.50
2022-10-09T09:33:56.237Z,2.97
2022-10-09T09:36:24.931Z,2.50
2022-10-09T09:39:40.820Z,2.60
2022-10-09T09:41:41.290Z,2.38
2022-10-09T09:44:13.280Z,2.53
2022-10-09T09:46:41.930Z,2.75
2022-10-09T09:49:20.921Z,2.10
2022-10-09T09:51:49.522Z,2.17
2022-10-09T09:54:24.202Z,2.00
2022-10-09T09:57:11.841Z,2.65
2022-10-09T09:59:43.213Z,2.28
2022-10-09T10:02:20.235Z,2.50
2022-10-09T10:04:56.504Z,2.80
2022-10-09T10:07:33.760Z,2.15
2022-10-09T10:10:10.655Z,2.45
2022-10-09T10:12:43.185Z,2.33
2022-10-09T10:15:23.909Z,2.30
2022-10-09T10:18:05.145Z,2.30
2022-10-09T10:20:34.026Z,2.00
2022-10-09T10:23:01.111Z,3.15
2022-10-09T10:25:32.956Z,2.30
2022-10-09T10:28:24.660Z,2.20
2022-10-09T10:30:54.173Z,2.40
2022-10-09T10:33:29.691Z,2.72
2022-10-09T10:35:59.241Z,2.95
2022-10-09T10:38:32.912Z,3.00
2022-10-09T10:41:19.734Z,2.22
2022-10-09T10:43:52.563Z,2.42
2022-10-09T10:46:29.300Z,2.45
2022-10-09T10:49:01.640Z,3.10
2022-10-09T10:52:03.554Z,2.67
2022-10-09T10:54:33.405Z,2.97
2022-10-09T10:57:00.071Z,2.50
2022-10-09T10:59:36.259Z,2.92
2022-10-09T11:02:14.905Z,2.63
2022-10-09T11:04:55.451Z,2.53
2022-10-09T11:10:20.046Z,2.00
2022-10-09T11:13:12.254Z,2.13
2022-10-09T11:15:54.093Z,2.95
2022-10-09T11:18:48.963Z,2.03
2022-10-09T11:21:18.710Z,2.20
2022-10-09T11:24:00.421Z,2.22
2022-10-09T11:27:03.029Z,3.03
2022-10-09T11:29:42.152Z,2.33
2022-10-09T11:32:15.723Z,2.30
2022-10-09T11:34:48.361Z,2.58
2022-10-09T11:37:26.853Z,3.10
2022-10-09T11:39:54.461Z,3.22
2022-10-09T11:42:24.394Z,2.83
2022-10-09T11:45:11.959Z,2.65
2022-10-09T11:48:10.145Z,3.05
2022-10-09T11:50:42.271Z,2.80
2022-10-09T11:53:12.923Z,2.33
2022-10-09T11:55:39.766Z,2.70
2022-10-09T11:58:24.402Z,2.50
2022-10-09T12:00:56.722Z,2.83
2022-10-09T12:03:33.670Z,3.00
2022-10-09T12:06:22.341Z,2.60
2022-10-09T12:09:07.267Z,2.65
2022-10-09T12:11:34.751Z,2.40
2022-10-09T12:14:07.501Z,2.60
2022-10-09T12:16:46.964Z,2.25
2022-10-09T12:19:18.634Z,2.00
2022-10-09T12:21:53.773Z,2.80
2022-10-09T12:24:26.743Z,2.67
2022-10-09T12:26:59.544Z,2.30
2022-10-09T12:29:44.498Z,2.30
2022-10-09T12:32:39.445Z,2.28
2022-10-09T12:35:29.530Z,2.78
2022-10-09T12:37:56.231Z,2.65
2022-10-09T12:40:33.800Z,2.10
2022-10-09T12:43:07.717Z,2.03
2022-10-09T12:45:43.363Z,2.45
2022-10-09T12:48:12.585Z,2.78
2022-10-09T12:50:39.526Z,2.80
2022-10-09T12:53:13.680Z,3.35
2022-10-09T12:55:49.935Z,3.35
2022-10-09T12:58:29.717Z,3.10
2022-10-09T13:01:03.094Z,2.72
2022-10-09T13:03:33.130Z,3.00
2022-10-09T13:06:01.317Z,2.80
2022-10-09T13:08:32.180Z,3.10
2022-10-09T13:11:34.164Z,2.80
2022-10-09T13:14:01.634Z,2.45
2022-10-09T13:16:44.107Z,3.17
2022-10-09T13:19:27.158Z,2.90
2022-10-09T13:22:31.114Z,2.80
2022-10-09T13:25:01.909Z,3.28
2022-10-09T13:27:34.979Z,3.53
2022-10-09T13:30:02.327Z,3.63
2022-10-09T13:32:29.138Z,3.60
2022-10-09T13:34:55.844Z,4.05
2022-10-09T13:37:25.026Z,3.30
2022-10-09T13:39:58.440Z,3.33
2022-10-09T13:42:31.044Z,3.58
2022-10-09T13:44:58.287Z,3.58
2022-10-09T13:47:25.049Z,3.90
2022-10-09T13:49:52.082Z,3.80
2022-10-09T13:52:18.917Z,3.85
2022-10-09T13:54:45.698Z,3.80
2022-10-09T13:57:12.615Z,3.55
2022-10-09T13:59:39.848Z,3.65
2022-10-09T14:02:06.669Z,3.78
2022-10-09T14:04:33.417Z,3.97
2022-10-09T14:07:00.127Z,7.13
2022-10-09T14:09:26.916Z,9.73
2022-10-09T14:11:53.658Z,4.20
2022-10-09T14:14:22.355Z,3.70
2022-10-09T14:16:50.690Z,3.92
2022-10-09T14:19:18.051Z,3.80
2022-10-09T14:21:46.782Z,3.50
2022-10-09T14:24:14.555Z,3.47
2022-10-09T14:26:41.505Z,3.72
2022-10-09T14:29:09.702Z,5.03
2022-10-09T14:31:36.557Z,11.20
2022-10-09T14:34:03.596Z,15.90
2022-10-09T14:36:31.605Z,4.40
2022-10-09T14:39:01.290Z,3.95
2022-10-09T14:41:33.206Z,2.97
2022-10-09T14:44:02.385Z,3.92
2022-10-09T14:46:29.916Z,17.83
2022-10-09T14:48:59.000Z,59.25
2022-10-09T14:51:27.356Z,19.48
2022-10-09T14:53:58.372Z,16.90
2022-10-09T14:56:26.512Z,7.32
2022-10-09T14:58:53.831Z,4.57
2022-10-09T15:01:22.565Z,4.03
2022-10-09T15:03:49.612Z,4.90
2022-10-09T15:06:18.320Z,4.55
2022-10-09T15:08:45.085Z,6.20
2022-10-09T15:11:12.651Z,4.55
2022-10-09T15:13:40.078Z,4.43
2022-10-09T15:16:11.162Z,4.57
2022-10-09T15:18:38.461Z,3.30
2022-10-09T15:21:05.802Z,3.40
2022-10-09T15:23:32.546Z,3.90
2022-10-09T15:26:00.692Z,3.05
2022-10-09T15:28:27.805Z,4.75
2022-10-09T15:30:57.916Z,3.67
2022-10-09T15:33:25.126Z,3.20
2022-10-09T15:35:53.070Z,2.88
2022-10-09T15:38:22.439Z,2.15
2022-10-09T15:40:51.487Z,2.22
2022-10-09T15:43:20.373Z,2.33
2022-10-09T15:45:48.014Z,2.30
2022-10-09T15:48:17.868Z,2.47
2022-10-09T15:50:46.580Z,2.83
2022-10-09T15:53:15.011Z,2.17
2022-10-09T15:55:44.183Z,6.72
2022-10-09T15:58:11.259Z,4.13
2022-10-09T16:00:40.636Z,2.40
2022-10-09T16:03:08.306Z,2.30
2022-10-09T16:05:43.300Z,3.90
2022-10-09T16:08:11.516Z,2.42
2022-10-09T16:10:49.555Z,2.38
2022-10-09T16:13:16.861Z,2.83
2022-10-09T16:15:45.317Z,4.38
2022-10-09T16:18:12.202Z,2.38
2022-10-09T16:20:40.396Z,5.63
2022-10-09T16:23:08.896Z,2.90
2022-10-09T16:25:37.431Z,3.38
2022-10-09T16:28:05.676Z,2.30
2022-10-09T16:30:33.381Z,6.40
2022-10-09T16:33:00.081Z,2.53
2022-10-09T16:35:26.793Z,3.05
2022-10-09T16:37:53.544Z,4.90
2022-10-09T16:40:25.411Z,5.32
2022-10-09T16:43:00.501Z,5.55
2022-10-09T16:45:28.006Z,6.05
2022-10-09T16:47:59.277Z,5.88
2022-10-09T16:50:26.078Z,3.60
2022-10-09T16:52:53.915Z,2.90
2022-10-09T16:55:20.693Z,2.90
2022-10-09T16:57:47.473Z,2.60
2022-10-09T17:00:19.001Z,2.55
2022-10-09T17:02:46.128Z,3.00
2022-10-09T17:05:13.468Z,3.00
2022-10-09T17:07:40.206Z,2.70
2022-10-09T17:10:07.420Z,2.47
2022-10-09T17:12:34.153Z,2.95
2022-10-09T17:15:00.856Z,2.60
2022-10-09T17:17:27.633Z,2.55
2022-10-09T17:19:54.328Z,2.40
2022-10-09T17:22:21.058Z,3.40
2022-10-09T17:24:48.829Z,3.40
2022-10-09T17:27:15.497Z,3.20
2022-10-09T17:29:42.223Z,3.30
2022-10-09T17:32:09.390Z,3.20
2022-10-09T17:34:36.213Z,3.78
2022-10-09T17:37:02.967Z,3.35
2022-10-09T17:39:29.807Z,3.17
2022-10-09T17:41:56.620Z,3.20
2022-10-09T17:44:23.529Z,3.00
2022-10-09T17:46:50.350Z,3.92
2022-10-09T17:49:17.023Z,3.65
2022-10-09T17:51:43.768Z,4.63
2022-10-09T17:54:16.916Z,6.82
2022-10-09T17:56:44.051Z,7.45
2022-10-09T17:59:11.468Z,5.90
2022-10-09T18:01:38.994Z,6.10
2022-10-09T18:04:05.887Z,5.38
2022-10-09T18:06:34.554Z,14.98
2022-10-09T18:09:02.086Z,62.67
2022-10-09T18:11:29.995Z,33.70
2022-10-09T18:13:56.921Z,31.30
2022-10-09T18:16:35.373Z,32.03
2022-10-09T18:19:05.628Z,24.88
2022-10-09T18:21:34.567Z,15.20
2022-10-09T18:24:01.389Z,8.18
2022-10-09T18:26:28.174Z,4.50
2022-10-09T18:28:55.060Z,4.03
2022-10-09T18:31:23.751Z,4.15
2022-10-09T18:33:52.121Z,6.57
2022-10-09T18:36:21.798Z,7.35
2022-10-09T18:38:51.711Z,12.25
2022-10-09T18:41:19.512Z,21.65
2022-10-09T18:43:47.233Z,21.05
2022-10-09T18:46:16.073Z,26.40
2022-10-09T18:48:44.535Z,24.73
2022-10-09T18:51:15.700Z,18.98
2022-10-09T18:53:47.249Z,17.70
2022-10-09T18:56:16.228Z,15.10
2022-10-09T18:58:43.461Z,9.55
2022-10-09T19:01:10.203Z,7.63
2022-10-09T19:03:37.019Z,6.75
2022-10-09T19:06:04.974Z,5.40
2022-10-09T19:08:31.756Z,5.43
2022-10-09T19:10:58.539Z,5.80
2022-10-09T19:13:25.363Z,6.22
2022-10-09T19:15:59.140Z,5.78
2022-10-09T19:18:26.939Z,4.82
2022-10-09T19:20:53.664Z,5.30
2022-10-09T19:23:20.479Z,4.65
2022-10-09T19:25:49.080Z,4.57
2022-10-09T19:28:16.152Z,5.20
2022-10-09T19:30:44.050Z,4.97
2022-10-09T19:33:10.949Z,4.97
2022-10-09T19:35:58.150Z,4.95
2022-10-09T19:38:25.839Z,4.63
2022-10-09T19:40:52.987Z,4.38
2022-10-09T19:43:20.128Z,5.07
2022-10-09T19:45:49.225Z,5.20
2022-10-09T19:48:17.458Z,5.03
2022-10-09T19:50:46.162Z,4.95
2022-10-09T19:53:14.030Z,5.00
2022-10-09T19:55:41.220Z,5.78
2022-10-09T19:58:08.645Z,5.55
2022-10-09T20:00:42.995Z,5.47
2022-10-09T20:03:10.221Z,6.80
2022-10-09T20:05:37.100Z,6.30
2022-10-09T20:08:03.998Z,6.72
2022-10-09T20:10:30.715Z,7.20
2022-10-09T20:12:57.474Z,6.90
2022-10-09T20:15:24.295Z,7.22
2022-10-09T20:17:50.957Z,6.57
2022-10-09T20:20:17.844Z,6.20
2022-10-09T20:22:44.559Z,6.43
2022-10-09T20:25:11.241Z,5.63
2022-10-09T20:27:38.306Z,5.72
2022-10-09T20:30:05.549Z,6.38
2022-10-09T20:32:36.348Z,6.63
2022-10-09T20:35:04.458Z,6.03
2022-10-09T20:37:31.590Z,6.22
2022-10-09T20:39:58.392Z,5.55
2022-10-09T20:42:25.985Z,5.20
2022-10-09T20:44:53.755Z,4.85
2022-10-09T20:47:20.433Z,4.90
2022-10-09T20:49:48.359Z,5.90
2022-10-09T20:52:15.169Z,5.68
2022-10-09T20:54:41.889Z,4.90
2022-10-09T20:57:08.561Z,5.03
2022-10-09T20:59:35.387Z,4.70
2022-10-09T21:02:02.052Z,4.57
2022-10-09T21:04:28.862Z,4.93
2022-10-09T21:06:56.607Z,4.65
2022-10-09T21:09:23.391Z,4.85
2022-10-09T21:11:50.799Z,4.88
2022-10-09T21:14:17.530Z,4.72
2022-10-09T21:16:44.276Z,4.70
2022-10-09T21:19:11.950Z,4.90
2022-10-09T21:21:41.246Z,4.35
2022-10-09T21:24:08.040Z,4.10
2022-10-09T21:26:35.826Z,3.80
2022-10-09T21:29:04.962Z,4.28
2022-10-09T21:31:33.104Z,4.10
2022-10-09T21:34:00.842Z,4.15
2022-10-09T21:37:16.409Z,3.28
2022-10-09T21:39:37.999Z,3.65
2022-10-09T21:42:04.851Z,3.53
2022-10-09T21:44:31.567Z,3.30
2022-10-09T21:46:58.342Z,3.45
2022-10-09T21:49:27.322Z,3.28
2022-10-09T21:51:55.293Z,3.75
2022-10-09T21:54:22.393Z,3.17
2022-10-09T21:56:49.094Z,3.70
2022-10-09T21:59:16.016Z,3.20
2022-10-09T22:01:42.810Z,3.08
2022-10-09T22:04:09.501Z,3.10
2022-10-09T22:06:36.252Z,3.00
2022-10-09T22:09:03.607Z,3.25
2022-10-09T22:11:30.323Z,3.28
2022-10-09T22:13:57.171Z,3.25
2022-10-09T22:16:23.963Z,3.08
2022-10-09T22:18:50.662Z,3.03
2022-10-09T22:21:17.779Z,3.20
2022-10-09T22:23:44.899Z,2.80
2022-10-09T22:26:14.516Z,3.40
2022-10-09T22:28:42.804Z,3.33
2022-10-09T22:31:24.387Z,3.67
2022-10-09T22:33:53.007Z,3.13
2022-10-09T22:36:21.422Z,3.08
2022-10-09T22:38:48.166Z,3.38
2022-10-09T22:41:19.964Z,3.47
2022-10-09T22:43:49.115Z,3.35
2022-10-09T22:46:24.266Z,3.28
2022-10-09T22:48:51.825Z,3.60
2022-10-09T22:51:20.949Z,3.22
2022-10-09T22:53:47.776Z,3.17
2022-10-09T22:56:20.209Z,3.40
2022-10-09T22:58:48.237Z,3.45
2022-10-09T23:01:18.235Z,3.45
2022-10-09T23:03:45.428Z,3.70
2022-10-09T23:06:21.221Z,3.63
2022-10-09T23:08:49.109Z,3.65
2022-10-09T23:11:17.848Z,3.60
2022-10-09T23:13:45.545Z,3.70
2022-10-09T23:16:14.680Z,3.58
2022-10-09T23:18:42.495Z,3.70
2022-10-09T23:21:12.460Z,3.33
2022-10-09T23:23:40.017Z,3.55
2022-10-09T23:26:12.971Z,3.38
2022-10-09T23:28:40.320Z,3.30
2022-10-09T23:31:12.384Z,3.92
2022-10-09T23:33:41.213Z,3.70
2022-10-09T23:36:11.854Z,3.35
2022-10-09T23:38:38.927Z,4.00
2022-10-09T23:41:08.448Z,3.38
2022-10-09T23:43:37.215Z,3.80
2022-10-09T23:46:06.444Z,3.90
2022-10-09T23:48:33.661Z,3.92
2022-10-09T23:51:00.505Z,3.92
2022-10-09T23:53:27.509Z,3.70
2022-10-09T23:55:54.738Z,3.97
2022-10-09T23:58:23.173Z,3.78
